Terminal Aerodrome Forecast
Issued by NWS Sterling, VA

Current Version | Previous Version | Text Only | Print | Product List | Glossary Off
Versions: 1 2 3 4 5 6 7 8 9 10 11 12 13 14 15

000
FTUS41 KLWX 282335
TAFMRB
TAF
KMRB 282335Z 0100/0124 16004KT P6SM BKN100
     FM010100 VRB03KT P6SM BKN080
     FM011200 15006KT 3SM -SN SCT030 OVC050
     FM011800 17007KT 2SM -FZRASNPL BR BKN015 OVC020
     FM012100 16006KT 4SM -FZRA BR BKN015 OVC020=

USA.gov is the U.S. government's official web portal to all federal, state and local government web resources and services.